2016 Cux-Wetter.de -Die Nutzung der Wetterdaten nur mit ausdrcklicher Genehmigung
Wetterdaten: Donnerstag, 17.01.2019
Datum Zeit Temp. A. Feuchte A. Luftdruck Regen Wind Richtung Richtung Sonnenschein Solar Taupunkt Windchill Windben
17.01.2019 00:00 5,1 C 95 % 994,0 hPa 0,0 l/m 20,9 km/h (4 Bft) SW 225 0 min 0 W/m 4,4 C -3,4 C 33,8 km/h (5 Bft)
17.01.2019 00:15 5,1 C 96 % 993,9 hPa 0,2 l/m 22,5 km/h (4 Bft) SW 225 0 min 0 W/m 4,5 C -4,0 C 40,2 km/h (6 Bft)
17.01.2019 00:30 5,2 C 96 % 993,9 hPa 0,2 l/m 20,9 km/h (4 Bft) SW 225 0 min 0 W/m 4,6 C -3,3 C 35,4 km/h (5 Bft)
17.01.2019 00:45 5,1 C 96 % 993,9 hPa 0,2 l/m 12,9 km/h (3 Bft) SW 225 0 min 0 W/m 4,5 C 0,3 C 33,8 km/h (5 Bft)
17.01.2019 01:00 4,9 C 96 % 993,9 hPa 0,4 l/m 9,7 km/h (2 Bft) SW 225 0 min 0 W/m 4,3 C 2,2 C 25,7 km/h (4 Bft)
17.01.2019 01:15 5,1 C 96 % 993,8 hPa 0,2 l/m 12,9 km/h (3 Bft) SW 225 0 min 0 W/m 4,5 C 0,3 C 27,4 km/h (5 Bft)
17.01.2019 01:30 4,9 C 96 % 993,7 hPa 0,0 l/m 12,9 km/h (3 Bft) SW 225 0 min 0 W/m 4,3 C 0,1 C 22,5 km/h (4 Bft)
17.01.2019 01:45 5,0 C 96 % 993,7 hPa 0,0 l/m 14,5 km/h (3 Bft) SW 225 0 min 0 W/m 4,4 C -0,7 C 27,4 km/h (5 Bft)
17.01.2019 02:00 5,1 C 96 % 993,7 hPa 0,0 l/m 14,5 km/h (3 Bft) SW 225 0 min 0 W/m 4,5 C -0,5 C 24,1 km/h (4 Bft)
17.01.2019 02:15 4,9 C 96 % 993,7 hPa 0,0 l/m 14,5 km/h (3 Bft) SW 225 0 min 0 W/m 4,3 C -0,8 C 25,7 km/h (4 Bft)
17.01.2019 02:30 4,8 C 96 % 993,9 hPa 0,0 l/m 16,1 km/h (3 Bft) SW 225 0 min 0 W/m 4,2 C -1,7 C 27,4 km/h (5 Bft)
17.01.2019 02:45 4,8 C 96 % 993,6 hPa 0,0 l/m 16,1 km/h (3 Bft) SW 225 0 min 0 W/m 4,2 C -1,7 C 30,6 km/h (5 Bft)
17.01.2019 03:00 4,7 C 96 % 993,8 hPa 0,0 l/m 16,1 km/h (3 Bft) SW 225 0 min 0 W/m 4,1 C -1,8 C 32,2 km/h (5 Bft)
17.01.2019 03:15 4,7 C 96 % 993,9 hPa 0,0 l/m 17,7 km/h (3 Bft) SW 225 0 min 0 W/m 4,1 C -2,6 C 29,0 km/h (5 Bft)
17.01.2019 03:30 4,7 C 96 % 994,0 hPa 0,0 l/m 19,3 km/h (3 Bft) SW 225 0 min 0 W/m 4,1 C -3,3 C 35,4 km/h (5 Bft)
17.01.2019 03:45 4,6 C 95 % 993,8 hPa 0,0 l/m 17,7 km/h (3 Bft) SW 225 0 min 0 W/m 3,9 C -2,7 C 32,2 km/h (5 Bft)
17.01.2019 04:00 4,4 C 95 % 993,9 hPa 0,0 l/m 17,7 km/h (3 Bft) SW 225 0 min 0 W/m 3,7 C -3,0 C 35,4 km/h (5 Bft)
17.01.2019 04:15 4,4 C 95 % 993,8 hPa 0,0 l/m 17,7 km/h (3 Bft) SW 225 0 min 0 W/m 3,7 C -3,0 C 30,6 km/h (5 Bft)
17.01.2019 04:30 4,6 C 95 % 993,6 hPa 0,0 l/m 17,7 km/h (3 Bft) SW 225 0 min 0 W/m 3,9 C -2,7 C 30,6 km/h (5 Bft)
17.01.2019 04:45 4,6 C 95 % 993,6 hPa 0,0 l/m 17,7 km/h (3 Bft) SW 225 0 min 0 W/m 3,9 C -2,7 C 30,6 km/h (5 Bft)
17.01.2019 05:00 4,6 C 95 % 993,5 hPa 0,0 l/m 17,7 km/h (3 Bft) SW 225 0 min 0 W/m 3,9 C -2,7 C 27,4 km/h (5 Bft)
17.01.2019 05:15 4,7 C 95 % 993,5 hPa 0,0 l/m 17,7 km/h (3 Bft) SW 225 0 min 0 W/m 4,0 C -2,6 C 30,6 km/h (5 Bft)
17.01.2019 05:30 4,6 C 95 % 993,5 hPa 0,0 l/m 20,9 km/h (4 Bft) SW 225 0 min 0 W/m 3,9 C -4,0 C 33,8 km/h (5 Bft)
17.01.2019 05:45 4,6 C 95 % 993,4 hPa 0,0 l/m 20,9 km/h (4 Bft) SW 225 0 min 0 W/m 3,9 C -4,0 C 38,6 km/h (6 Bft)
17.01.2019 06:00 4,8 C 95 % 993,4 hPa 0,0 l/m 17,7 km/h (3 Bft) SW 225 0 min 0 W/m 4,1 C -2,5 C 33,8 km/h (5 Bft)
17.01.2019 06:15 4,6 C 94 % 993,4 hPa 0,2 l/m 20,9 km/h (4 Bft) SW 225 0 min 0 W/m 3,7 C -4,0 C 41,8 km/h (6 Bft)
17.01.2019 06:30 4,4 C 94 % 993,4 hPa 0,0 l/m 20,9 km/h (4 Bft) SW 225 0 min 0 W/m 3,5 C -4,3 C 41,8 km/h (6 Bft)
17.01.2019 06:45 4,4 C 94 % 993,3 hPa 0,0 l/m 20,9 km/h (4 Bft) SW 225 0 min 0 W/m 3,5 C -4,3 C 32,2 km/h (5 Bft)
17.01.2019 07:00 4,4 C 94 % 993,3 hPa 0,0 l/m 19,3 km/h (3 Bft) SW 225 0 min 0 W/m 3,5 C -3,7 C 32,2 km/h (5 Bft)
17.01.2019 07:15 4,3 C 94 % 993,2 hPa 0,0 l/m 20,9 km/h (4 Bft) SW 225 0 min 0 W/m 3,4 C -4,4 C 38,6 km/h (6 Bft)
17.01.2019 07:30 4,3 C 94 % 993,3 hPa 0,0 l/m 20,9 km/h (4 Bft) SW 225 0 min 0 W/m 3,4 C -4,4 C 37,0 km/h (5 Bft)
17.01.2019 07:45 4,4 C 94 % 993,3 hPa 0,0 l/m 19,3 km/h (3 Bft) SW 225 0 min 0 W/m 3,5 C -3,7 C 33,8 km/h (5 Bft)
17.01.2019 08:00 4,4 C 94 % 993,4 hPa 0,0 l/m 20,9 km/h (4 Bft) SW 225 0 min 0 W/m 3,5 C -4,3 C 37,0 km/h (5 Bft)
17.01.2019 08:15 4,3 C 94 % 993,3 hPa 0,0 l/m 22,5 km/h (4 Bft) SW 225 0 min 0 W/m 3,4 C -5,0 C 41,8 km/h (6 Bft)
17.01.2019 08:30 4,3 C 94 % 993,4 hPa 0,0 l/m 22,5 km/h (4 Bft) SW 225 0 min 0 W/m 3,4 C -5,0 C 35,4 km/h (5 Bft)
17.01.2019 08:45 4,3 C 93 % 993,4 hPa 0,0 l/m 24,1 km/h (4 Bft) SW 225 0 min 5 W/m 3,3 C -5,6 C 43,5 km/h (6 Bft)
17.01.2019 09:00 4,4 C 93 % 993,4 hPa 0,0 l/m 22,5 km/h (4 Bft) SW 225 15 min 37 W/m 3,4 C -4,9 C 38,6 km/h (6 Bft)
17.01.2019 09:15 4,6 C 93 % 993,5 hPa 0,0 l/m 24,1 km/h (4 Bft) SW 225 0 min 16 W/m 3,6 C -5,2 C 38,6 km/h (6 Bft)
17.01.2019 09:30 4,7 C 93 % 993,5 hPa 0,0 l/m 25,7 km/h (4 Bft) SW 225 15 min 56 W/m 3,7 C -5,6 C 38,6 km/h (6 Bft)
17.01.2019 09:45 4,7 C 92 % 993,6 hPa 0,0 l/m 25,7 km/h (4 Bft) SW 225 0 min 39 W/m 3,5 C -5,6 C 41,8 km/h (6 Bft)
17.01.2019 10:00 4,8 C 92 % 993,7 hPa 0,0 l/m 25,7 km/h (4 Bft) SW 225 0 min 53 W/m 3,6 C -5,4 C 41,8 km/h (6 Bft)
17.01.2019 10:15 4,9 C 92 % 993,8 hPa 0,0 l/m 25,7 km/h (4 Bft) SW 225 15 min 169 W/m 3,7 C -5,3 C 40,2 km/h (6 Bft)
17.01.2019 10:30 4,8 C 92 % 993,7 hPa 0,0 l/m 24,1 km/h (4 Bft) SW 225 0 min 58 W/m 3,6 C -4,9 C 46,7 km/h (6 Bft)
17.01.2019 10:45 4,8 C 93 % 993,8 hPa 0,0 l/m 27,4 km/h (5 Bft) SW 225 0 min 109 W/m 3,8 C -5,9 C 46,7 km/h (6 Bft)
17.01.2019 11:00 4,8 C 93 % 994,0 hPa 0,0 l/m 24,1 km/h (4 Bft) SW 225 0 min 98 W/m 3,8 C -4,9 C 40,2 km/h (6 Bft)
17.01.2019 11:15 4,7 C 93 % 994,2 hPa 0,0 l/m 22,5 km/h (4 Bft) SW 225 0 min 25 W/m 3,7 C -4,5 C 37,0 km/h (5 Bft)
17.01.2019 11:30 4,7 C 93 % 994,1 hPa 0,2 l/m 17,7 km/h (3 Bft) W-SW 247 0 min 49 W/m 3,7 C -2,6 C 33,8 km/h (5 Bft)
17.01.2019 11:45 4,7 C 93 % 994,1 hPa 0,0 l/m 20,9 km/h (4 Bft) SW 225 0 min 79 W/m 3,7 C -3,9 C 38,6 km/h (6 Bft)
17.01.2019 12:00 4,7 C 94 % 994,1 hPa 0,0 l/m 20,9 km/h (4 Bft) SW 225 0 min 88 W/m 3,8 C -3,9 C 35,4 km/h (5 Bft)
17.01.2019 12:15 4,8 C 94 % 994,2 hPa 0,0 l/m 19,3 km/h (3 Bft) SW 225 0 min 83 W/m 3,9 C -3,1 C 32,2 km/h (5 Bft)
17.01.2019 12:30 4,9 C 93 % 994,0 hPa 0,0 l/m 14,5 km/h (3 Bft) W-SW 247 0 min 83 W/m 3,9 C -0,8 C 24,1 km/h (4 Bft)
17.01.2019 12:45 5,1 C 91 % 994,2 hPa 0,0 l/m 14,5 km/h (3 Bft) W 270 0 min 81 W/m 3,8 C -0,5 C 29,0 km/h (5 Bft)
17.01.2019 13:00 5,2 C 90 % 994,2 hPa 0,0 l/m 14,5 km/h (3 Bft) W 270 0 min 79 W/m 3,7 C -0,4 C 29,0 km/h (5 Bft)
17.01.2019 13:15 5,3 C 89 % 994,2 hPa 0,0 l/m 14,5 km/h (3 Bft) W 270 0 min 76 W/m 3,6 C -0,3 C 30,6 km/h (5 Bft)
17.01.2019 13:30 5,3 C 88 % 994,4 hPa 0,0 l/m 16,1 km/h (3 Bft) W 270 0 min 74 W/m 3,5 C -1,1 C 29,0 km/h (5 Bft)
17.01.2019 13:45 5,0 C 87 % 994,6 hPa 0,0 l/m 14,5 km/h (3 Bft) W 270 0 min 72 W/m 3,0 C -0,7 C 37,0 km/h (5 Bft)
17.01.2019 14:00 4,9 C 88 % 994,7 hPa 0,0 l/m 16,1 km/h (3 Bft) W 270 0 min 88 W/m 3,1 C -1,6 C 38,6 km/h (6 Bft)
17.01.2019 14:15 4,8 C 88 % 994,7 hPa 0,0 l/m 14,5 km/h (3 Bft) W 270 0 min 91 W/m 3,0 C -0,9 C 32,2 km/h (5 Bft)
17.01.2019 14:30 4,8 C 88 % 994,7 hPa 0,0 l/m 14,5 km/h (3 Bft) W 270 0 min 81 W/m 3,0 C -0,9 C 27,4 km/h (5 Bft)
17.01.2019 14:45 4,7 C 89 % 994,9 hPa 0,0 l/m 11,3 km/h (2 Bft) W 270 0 min 74 W/m 3,0 C 0,9 C 22,5 km/h (4 Bft)
17.01.2019 15:00 4,5 C 89 % 994,9 hPa 0,0 l/m 11,3 km/h (2 Bft) W 270 0 min 86 W/m 2,8 C 0,6 C 24,1 km/h (4 Bft)
17.01.2019 15:15 4,5 C 89 % 995,1 hPa 0,0 l/m 12,9 km/h (3 Bft) W 270 15 min 76 W/m 2,8 C -0,4 C 25,7 km/h (4 Bft)
17.01.2019 15:30 4,5 C 89 % 995,3 hPa 0,0 l/m 12,9 km/h (3 Bft) W 270 0 min 44 W/m 2,8 C -0,4 C 27,4 km/h (5 Bft)
17.01.2019 15:45 4,6 C 89 % 995,5 hPa 0,0 l/m 11,3 km/h (2 Bft) W 270 15 min 74 W/m 2,9 C 0,7 C 29,0 km/h (5 Bft)
17.01.2019 16:00 4,1 C 89 % 995,7 hPa 0,0 l/m 12,9 km/h (3 Bft) W 270 15 min 54 W/m 2,5 C -0,8 C 32,2 km/h (5 Bft)
17.01.2019 16:15 4,1 C 89 % 995,9 hPa 0,0 l/m 14,5 km/h (3 Bft) W 270 15 min 29 W/m 2,5 C -1,7 C 27,4 km/h (5 Bft)
17.01.2019 16:30 3,8 C 89 % 996,0 hPa 0,0 l/m 11,3 km/h (2 Bft) W 270 0 min 11 W/m 2,2 C -0,2 C 24,1 km/h (4 Bft)
17.01.2019 16:45 3,8 C 89 % 996,2 hPa 0,0 l/m 12,9 km/h (3 Bft) W 270 0 min 0 W/m 2,2 C -1,2 C 27,4 km/h (5 Bft)
17.01.2019 17:00 3,7 C 90 % 996,5 hPa 0,0 l/m 9,7 km/h (2 Bft) W 270 0 min 0 W/m 2,2 C 0,9 C 24,1 km/h (4 Bft)
17.01.2019 17:15 2,5 C 89 % 997,0 hPa 0,2 l/m 24,1 km/h (4 Bft) NW 315 0 min 0 W/m 0,9 C -8,0 C 51,5 km/h (7 Bft)
17.01.2019 17:30 1,8 C 91 % 997,2 hPa 0,0 l/m 24,1 km/h (4 Bft) NW 315 0 min 0 W/m 0,5 C -9,0 C 53,1 km/h (7 Bft)
17.01.2019 17:45 1,6 C 92 % 997,1 hPa 0,2 l/m 16,1 km/h (3 Bft) N-NW 337 0 min 0 W/m 0,4 C -5,7 C 29,0 km/h (5 Bft)
17.01.2019 18:00 1,6 C 92 % 996,9 hPa 0,2 l/m 4,8 km/h (1 Bft) N-NW 337 0 min 0 W/m 0,4 C 1,6 C 16,1 km/h (3 Bft)
17.01.2019 18:15 1,6 C 93 % 997,3 hPa 0,0 l/m 3,2 km/h (1 Bft) N-NW 337 0 min 0 W/m 0,6 C 1,6 C 8,0 km/h (2 Bft)
17.01.2019 18:30 1,9 C 93 % 997,6 hPa 0,0 l/m 8,0 km/h (2 Bft) W 270 0 min 0 W/m 0,9 C 0,3 C 16,1 km/h (3 Bft)
17.01.2019 18:45 2,1 C 93 % 998,0 hPa 0,2 l/m 11,3 km/h (2 Bft) W-SW 247 0 min 0 W/m 1,1 C -2,1 C 19,3 km/h (3 Bft)
17.01.2019 19:00 2,3 C 94 % 998,4 hPa 0,0 l/m 11,3 km/h (2 Bft) W 270 0 min 0 W/m 1,4 C -1,9 C 25,7 km/h (4 Bft)
17.01.2019 19:15 2,4 C 93 % 998,6 hPa 0,2 l/m 17,7 km/h (3 Bft) NW 315 0 min 0 W/m 1,4 C -5,5 C 32,2 km/h (5 Bft)
17.01.2019 19:30 2,6 C 93 % 998,8 hPa 0,0 l/m 17,7 km/h (3 Bft) NW 315 0 min 0 W/m 1,6 C -5,2 C 33,8 km/h (5 Bft)
17.01.2019 19:45 2,6 C 93 % 999,4 hPa 0,0 l/m 22,5 km/h (4 Bft) N-NW 337 0 min 0 W/m 1,6 C -7,3 C 43,5 km/h (6 Bft)
17.01.2019 20:00 2,3 C 93 % 1000,0 hPa 0,0 l/m 20,9 km/h (4 Bft) N 360 0 min 0 W/m 1,3 C -7,0 C 41,8 km/h (6 Bft)
17.01.2019 20:15 1,9 C 93 % 1000,6 hPa 0,0 l/m 16,1 km/h (3 Bft) N-NO 22 0 min 0 W/m 0,9 C -5,3 C 45,1 km/h (6 Bft)
17.01.2019 20:30 1,7 C 92 % 1001,2 hPa 0,0 l/m 16,1 km/h (3 Bft) N 360 0 min 0 W/m 0,5 C -5,5 C 38,6 km/h (6 Bft)
17.01.2019 20:45 1,6 C 92 % 1001,8 hPa 0,0 l/m 11,3 km/h (2 Bft) N-NO 22 0 min 0 W/m 0,4 C -2,7 C 27,4 km/h (5 Bft)
17.01.2019 21:00 1,5 C 92 % 1002,4 hPa 0,0 l/m 12,9 km/h (3 Bft) N-NO 22 0 min 0 W/m 0,3 C -3,9 C 33,8 km/h (5 Bft)
17.01.2019 21:15 1,3 C 92 % 1003,0 hPa 0,0 l/m 14,5 km/h (3 Bft) N-NO 22 0 min 0 W/m 0,1 C -5,1 C 30,6 km/h (5 Bft)
17.01.2019 21:30 1,1 C 92 % 1003,6 hPa 0,0 l/m 12,9 km/h (3 Bft) N 360 0 min 0 W/m -0,1 C -4,3 C 27,4 km/h (5 Bft)
17.01.2019 21:45 1,0 C 92 % 1004,1 hPa 0,0 l/m 12,9 km/h (3 Bft) N-NO 22 0 min 0 W/m -0,2 C -4,5 C 33,8 km/h (5 Bft)
17.01.2019 22:00 0,9 C 92 % 1004,4 hPa 0,0 l/m 11,3 km/h (2 Bft) N 360 0 min 0 W/m -0,2 C -3,5 C 22,5 km/h (4 Bft)
17.01.2019 22:15 1,0 C 92 % 1005,0 hPa 0,0 l/m 11,3 km/h (2 Bft) N 360 0 min 0 W/m -0,2 C -3,3 C 27,4 km/h (5 Bft)
17.01.2019 22:30 0,9 C 92 % 1005,4 hPa 0,0 l/m 9,7 km/h (2 Bft) N 360 0 min 0 W/m -0,2 C -2,2 C 25,7 km/h (4 Bft)
17.01.2019 22:45 0,9 C 91 % 1005,8 hPa 0,0 l/m 12,9 km/h (3 Bft) N 360 0 min 0 W/m -0,4 C -4,6 C 29,0 km/h (5 Bft)
17.01.2019 23:00 1,0 C 91 % 1006,2 hPa 0,0 l/m 12,9 km/h (3 Bft) N 360 0 min 0 W/m -0,3 C -4,5 C 29,0 km/h (5 Bft)
17.01.2019 23:15 1,2 C 90 % 1006,5 hPa 0,0 l/m 16,1 km/h (3 Bft) N 360 0 min 0 W/m -0,3 C -6,1 C 29,0 km/h (5 Bft)
17.01.2019 23:30 1,4 C 89 % 1006,8 hPa 0,0 l/m 16,1 km/h (3 Bft) N 360 0 min 0 W/m -0,2 C -5,9 C 30,6 km/h (5 Bft)
17.01.2019 23:45 1,4 C 87 % 1007,0 hPa 0,0 l/m 14,5 km/h (3 Bft) N 360 0 min 0 W/m -0,5 C -5,0 C 32,2 km/h (5 Bft)
_ Min-Zeit 22:00 13:45 07:15 - 18:15 - - - - 23:45 17:30 18:15
Minimum _ 0,9 C 87 % 993,2 hPa - 3,2 km/h (1 Bft) - - - - -0,5 C -9,0 C 8,0 km/h (2 Bft)
_ Max-Zeit 13:00 00:15 23:45 01:00 10:45 - - 09:00 10:15 00:30 01:00 17:30
Maximum _ 5,3 C 96 % 1007,0 hPa 0,4 l/m 27,4 km/h
SW (5 Bft)
- - 15 min 169 W/m 4,6 C 2,2 C 53,1 km/h
W-NW (7 Bft)
Durchschnitt _ 3,8 C 93 % 996,2 hPa #2,6 l/m 16,9 km/h (3 Bft) SW - #1:45 h 67 W/m 2,7 C -3,0 C 32,4 km/h (5 Bft)
2019 Cux-Wetter.de -Die Nutzung der Wetterdaten nur mit ausdrcklicher Genehmigung